AirNav   Air Wisconsin pilot careers
 
 489 users online  

7PN0 Tidmore Airport
Minersville, Pennsylvania, USA

GOING TO MINERSVILLE?


FAA INFORMATION EFFECTIVE 09 NOVEMBER 2017

Location

FAA Identifier: 7PN0
Lat/Long: 40-42-18.0000N / 076-14-11.0000W
40-42.300000N / 076-14.183333W
40.7050000 / -76.2363889
(estimated)
Elevation: 930 ft. / 283 m (estimated)
Variation: 11W (1985)
From city: 1 mile NE of MINERSVILLE, PA
Time zone: UTC -5 (UTC -4 during Daylight Saving Time)
Zip code: 17901

Airport Operations

Airport use: Private use. Permission required prior to landing
Activation date: 03/1961
Control tower: no
ARTCC: NEW YORK CENTER
FSS: WILLIAMSPORT FLIGHT SERVICE STATION
Attendance: UNATNDD
Pattern altitude: 1730 ft. MSL
Wind indicator: yes
Segmented circle: no

Airport Communications

WX AWOS-3 at ZER (6 nm W): 127.57 (570-544-2778)
WX AWOS-3 at N79 (16 nm NW): 119.175 (570-672-0389)

Nearby radio navigation aids

VOR radial/distance  VOR name  Freq  Var
HZLr206/(17.0)HAZLETON VOR109.4009W
RAVr072/18.9RAVINE VORTAC114.6011W
ETXr295/26.2EAST TEXAS VOR/DME110.2009W
MIPr143/27.3MILTON VORTAC109.2009W
SEGr108/29.9SELINSGROVE VOR/DME110.4008W
LRPr013/35.2LANCASTER VOR/DME117.3009W
FJCr278/35.6ALLENTOWN VORTAC117.5010W

 
NDB name  Hdg/Dist  Freq  Var  ID
BELLGROVE052/21.732810WBZJ -... --.. .---

Airport Services

Parking: tiedowns
Bottled oxygen: NONE
Bulk oxygen: NONE

Runway Information

Runway 8/26

Dimensions: 2000 x 150 ft. / 610 x 46 m
Surface: turf, in good condition
Runway edge markings: 08/26 OUTLINED WITH YELLOW TIRES.
RUNWAY 8  RUNWAY 26
Traffic pattern: leftleft
Runway end identifier lights: nono
Obstructions: 33 ft. tree, 492 ft. from runway18 ft. trees, 271 ft. from runway

Airport Ownership and Management from official FAA records

Ownership: Privately-owned
Owner: ARGIE D. TIDMORE
PO BOX 86
POTTSVILLE, PA 17901
Phone 570-622-1360
EXT. 26
Manager: ARGIE D. TIDMORE
PO BOX 86
POTTSVILLE, PA 17901
Phone 570-622-1360
EXT. 26

Airport Operational Statistics

Aircraft based on the field: 1
Single engine airplanes: 1
    

Instrument Procedures

There are no published instrument procedures at 7PN0.

Some nearby airports with instrument procedures:

KZER - Schuylkill County/Joe Zerbey Airport (6 nm W)
N79 - Northumberland County Airport (16 nm NW)
74N - Bendigo Airport (17 nm SW)
N13 - Bloomsburg Municipal Airport (20 nm NW)
KHZL - Hazleton Regional Airport (20 nm NE)
 
Loc | Ops | Rwys | IFR | FBO | Links
Com | Nav | Svcs | Stats | Notes


 
Area around 7PN0 (Tidmore Airport)
 
Road maps at: MapQuest Bing Google
 
Aerial photo
No photo
 
Sectional chart

 
Airport distance calculator
Flying to Tidmore Airport? Find the distance to fly.

From to 7PN0

Sunrise and sunset
Times for 23-Nov-2017
 Local
(UTC-5)
 Zulu
(UTC)
Morning civil twilight06:3211:32
Sunrise07:0212:02
Sunset16:4121:41
Evening civil twilight17:1122:11

Current date and time
Zulu (UTC)  23-Nov-2017 13:06:14
Local (UTC-5)  23-Nov-2017 08:06:14
 
METAR
KHZL 
20nm NE 
231255Z AUTO 29006KT 10SM CLR M04/M08 A3011 RMK AO2
KMUI 
23nm SW 
231256Z AUTO 00000KT 10SM CLR 00/M08 A3016 RMK AO2 SLP221 T10051082 TSNO $
KRDG 
24nm SE 
231254Z AUTO 32007KT 10SM CLR M02/M06 A3016 RMK AO2 SLP221 T10221061
KSEG 
29nm W 
231253Z AUTO 00000KT 10SM CLR M03/M06 A3018 RMK AO2 SLP224 T10331056
KXLL 
35nm E 
231255Z AUTO 29003KT 10SM CLR M01/M07 A3017 RMK AO2
KLNS 
35nm S 
231253Z 26003KT 10SM CLR M03/M06 A3017 RMK AO2 SLP220 T10331056
KABE 
36nm E 
231251Z 27004KT 10SM CLR M02/M08 A3015 RMK AO2 SLP212 T10171083
KMDT 
39nm SW 
231256Z 36003KT 10SM SCT120 M01/M05 A3017 RMK AO2 SLP219 T10111050
TAF
KMUI 
23nm SW 
222022Z 2220/2401 30012KT 9999 BKN040 QNH3000INS TEMPO 2220/2223 31015G25KT 510003 BECMG 2222/2223 33009KT 9999 SCT030 QNH3005INS BECMG 2320/2321 29009KT 9999 SCT120 QNH3001INS TX07/2220Z TNM04/2311Z LAST NO AMDS AFT 2305 NEXT 2411
KRDG 
24nm SE 
231120Z 2312/2412 30007KT P6SM SKC FM232100 27005KT P6SM SCT150
NOTAMs
Click for the latest NOTAMs
NOTAMs are issued by the DoD/FAA and will open in a separate window not controlled by AirNav.

 

 
 

Would you like to see your business listed on this page?

 If your business provides an interesting product or service to pilots, flight crews, aircraft, or users of the Tidmore Airport, you should consider listing it here.  To start the listing process, click on the button below
 
Add a business
 

Other Pages about Tidmore Airport

Update a link
 
Copyright © AirNav, LLC. All rights reserved. Privacy Policy  Contact